sensor_id;sensor_type;location;lat;lon;timestamp;P1;durP1;ratioP1;P2;durP2;ratioP2
69951;SDS011;60406;48.408;13.392;2022-09-06T00:04:07;28.75;;;25.48;;
69951;SDS011;60406;48.408;13.392;2022-09-06T00:09:08;27.70;;;25.00;;
69951;SDS011;60406;48.408;13.392;2022-09-06T00:14:09;29.10;;;26.40;;
69951;SDS011;60406;48.408;13.392;2022-09-06T00:19:10;26.98;;;24.13;;
69951;SDS011;60406;48.408;13.392;2022-09-06T00:24:11;24.80;;;22.27;;
69951;SDS011;60406;48.408;13.392;2022-09-06T00:29:12;25.63;;;23.13;;
69951;SDS011;60406;48.408;13.392;2022-09-06T00:34:13;22.40;;;20.30;;
69951;SDS011;60406;48.408;13.392;2022-09-06T00:39:13;27.88;;;25.08;;
69951;SDS011;60406;48.408;13.392;2022-09-06T00:44:14;33.47;;;28.83;;
69951;SDS011;60406;48.408;13.392;2022-09-06T00:49:17;29.85;;;27.00;;
69951;SDS011;60406;48.408;13.392;2022-09-06T00:54:19;25.75;;;23.25;;
69951;SDS011;60406;48.408;13.392;2022-09-06T00:59:20;26.38;;;23.73;;
69951;SDS011;60406;48.408;13.392;2022-09-06T01:04:22;31.58;;;28.17;;
69951;SDS011;60406;48.408;13.392;2022-09-06T01:09:27;30.30;;;27.50;;
69951;SDS011;60406;48.408;13.392;2022-09-06T01:15:00;31.30;;;28.20;;
69951;SDS011;60406;48.408;13.392;2022-09-06T01:25:51;26.02;;;23.38;;
69951;SDS011;60406;48.408;13.392;2022-09-06T01:36:25;37.03;;;30.58;;
69951;SDS011;60406;48.408;13.392;2022-09-06T01:41:28;34.78;;;30.42;;
69951;SDS011;60406;48.408;13.392;2022-09-06T01:46:34;34.72;;;31.23;;
69951;SDS011;60406;48.408;13.392;2022-09-06T02:07:49;30.75;;;27.45;;
69951;SDS011;60406;48.408;13.392;2022-09-06T02:12:53;30.45;;;26.10;;
69951;SDS011;60406;48.408;13.392;2022-09-06T02:18:00;29.55;;;26.50;;
69951;SDS011;60406;48.408;13.392;2022-09-06T02:23:04;26.27;;;23.55;;
69951;SDS011;60406;48.408;13.392;2022-09-06T02:28:06;27.88;;;24.98;;
69951;SDS011;60406;48.408;13.392;2022-09-06T02:33:20;26.20;;;21.80;;
69951;SDS011;60406;48.408;13.392;2022-09-06T02:38:25;27.42;;;24.70;;
69951;SDS011;60406;48.408;13.392;2022-09-06T02:43:26;31.63;;;28.40;;
69951;SDS011;60406;48.408;13.392;2022-09-06T02:48:27;41.63;;;28.73;;
69951;SDS011;60406;48.408;13.392;2022-09-06T02:53:28;32.92;;;25.27;;
69951;SDS011;60406;48.408;13.392;2022-09-06T02:58:29;28.73;;;25.15;;
69951;SDS011;60406;48.408;13.392;2022-09-06T03:03:29;32.38;;;27.30;;
69951;SDS011;60406;48.408;13.392;2022-09-06T03:08:30;25.98;;;22.70;;
69951;SDS011;60406;48.408;13.392;2022-09-06T03:13:31;25.40;;;22.90;;
69951;SDS011;60406;48.408;13.392;2022-09-06T03:18:32;26.98;;;23.88;;
69951;SDS011;60406;48.408;13.392;2022-09-06T03:23:33;28.30;;;25.35;;
69951;SDS011;60406;48.408;13.392;2022-09-06T03:28:34;23.33;;;20.98;;
69951;SDS011;60406;48.408;13.392;2022-09-06T03:33:35;21.55;;;19.45;;
69951;SDS011;60406;48.408;13.392;2022-09-06T03:38:36;21.88;;;19.77;;
69951;SDS011;60406;48.408;13.392;2022-09-06T03:43:37;38.35;;;18.40;;
69951;SDS011;60406;48.408;13.392;2022-09-06T03:48:38;66.20;;;18.83;;
69951;SDS011;60406;48.408;13.392;2022-09-06T03:53:38;42.22;;;24.48;;
69951;SDS011;60406;48.408;13.392;2022-09-06T03:58:39;33.60;;;23.50;;
69951;SDS011;60406;48.408;13.392;2022-09-06T04:03:40;27.15;;;24.45;;
69951;SDS011;60406;48.408;13.392;2022-09-06T04:08:41;25.35;;;22.90;;
69951;SDS011;60406;48.408;13.392;2022-09-06T04:13:42;30.08;;;24.75;;
69951;SDS011;60406;48.408;13.392;2022-09-06T04:18:43;30.70;;;26.85;;
69951;SDS011;60406;48.408;13.392;2022-09-06T04:23:44;35.08;;;28.13;;
69951;SDS011;60406;48.408;13.392;2022-09-06T04:28:44;28.40;;;25.25;;
69951;SDS011;60406;48.408;13.392;2022-09-06T04:33:45;31.15;;;26.73;;
69951;SDS011;60406;48.408;13.392;2022-09-06T04:38:46;30.17;;;26.83;;
69951;SDS011;60406;48.408;13.392;2022-09-06T04:43:47;33.65;;;27.17;;
69951;SDS011;60406;48.408;13.392;2022-09-06T04:48:48;30.92;;;25.13;;
69951;SDS011;60406;48.408;13.392;2022-09-06T04:53:49;29.52;;;26.67;;
69951;SDS011;60406;48.408;13.392;2022-09-06T04:58:51;26.85;;;23.98;;
69951;SDS011;60406;48.408;13.392;2022-09-06T05:03:53;23.80;;;20.80;;
69951;SDS011;60406;48.408;13.392;2022-09-06T05:08:54;23.30;;;20.80;;
69951;SDS011;60406;48.408;13.392;2022-09-06T05:13:55;31.00;;;20.42;;
69951;SDS011;60406;48.408;13.392;2022-09-06T05:18:56;22.05;;;19.85;;
69951;SDS011;60406;48.408;13.392;2022-09-06T05:23:57;22.92;;;20.30;;
69951;SDS011;60406;48.408;13.392;2022-09-06T05:28:57;23.58;;;21.02;;
69951;SDS011;60406;48.408;13.392;2022-09-06T05:33:58;24.42;;;22.13;;
69951;SDS011;60406;48.408;13.392;2022-09-06T05:38:59;23.15;;;21.05;;
69951;SDS011;60406;48.408;13.392;2022-09-06T05:44:00;23.75;;;21.55;;
69951;SDS011;60406;48.408;13.392;2022-09-06T05:49:01;27.05;;;24.63;;
69951;SDS011;60406;48.408;13.392;2022-09-06T05:54:02;29.15;;;26.08;;
69951;SDS011;60406;48.408;13.392;2022-09-06T05:59:03;31.92;;;26.88;;
69951;SDS011;60406;48.408;13.392;2022-09-06T06:04:04;30.88;;;26.67;;
69951;SDS011;60406;48.408;13.392;2022-09-06T06:09:05;28.05;;;25.13;;
69951;SDS011;60406;48.408;13.392;2022-09-06T06:14:05;26.40;;;23.90;;
69951;SDS011;60406;48.408;13.392;2022-09-06T06:19:06;28.42;;;25.40;;
69951;SDS011;60406;48.408;13.392;2022-09-06T06:24:07;28.75;;;25.48;;
69951;SDS011;60406;48.408;13.392;2022-09-06T06:29:08;28.80;;;25.85;;
69951;SDS011;60406;48.408;13.392;2022-09-06T06:34:09;29.20;;;26.30;;
69951;SDS011;60406;48.408;13.392;2022-09-06T06:39:10;28.63;;;24.10;;
69951;SDS011;60406;48.408;13.392;2022-09-06T06:44:11;25.42;;;23.13;;
69951;SDS011;60406;48.408;13.392;2022-09-06T06:49:12;26.70;;;24.15;;
69951;SDS011;60406;48.408;13.392;2022-09-06T06:54:13;25.73;;;23.13;;
69951;SDS011;60406;48.408;13.392;2022-09-06T06:59:14;25.48;;;22.83;;
69951;SDS011;60406;48.408;13.392;2022-09-06T07:04:14;23.98;;;21.58;;
69951;SDS011;60406;48.408;13.392;2022-09-06T07:09:16;22.33;;;19.73;;
69951;SDS011;60406;48.408;13.392;2022-09-06T07:14:17;20.67;;;18.67;;
69951;SDS011;60406;48.408;13.392;2022-09-06T07:19:18;19.63;;;17.33;;
69951;SDS011;60406;48.408;13.392;2022-09-06T07:24:19;19.33;;;17.13;;
69951;SDS011;60406;48.408;13.392;2022-09-06T07:29:20;18.17;;;16.48;;
69951;SDS011;60406;48.408;13.392;2022-09-06T07:34:21;17.67;;;16.08;;
69951;SDS011;60406;48.408;13.392;2022-09-06T07:39:22;16.45;;;14.82;;
69951;SDS011;60406;48.408;13.392;2022-09-06T07:44:23;15.95;;;14.50;;
69951;SDS011;60406;48.408;13.392;2022-09-06T07:49:24;17.42;;;13.55;;
69951;SDS011;60406;48.408;13.392;2022-09-06T07:54:25;19.63;;;16.08;;
69951;SDS011;60406;48.408;13.392;2022-09-06T07:59:26;13.98;;;12.50;;
69951;SDS011;60406;48.408;13.392;2022-09-06T08:04:27;15.07;;;13.27;;
69951;SDS011;60406;48.408;13.392;2022-09-06T08:09:28;13.75;;;12.45;;
69951;SDS011;60406;48.408;13.392;2022-09-06T08:14:29;13.43;;;11.80;;
69951;SDS011;60406;48.408;13.392;2022-09-06T08:19:29;14.90;;;13.50;;
69951;SDS011;60406;48.408;13.392;2022-09-06T08:24:30;13.90;;;12.57;;
69951;SDS011;60406;48.408;13.392;2022-09-06T08:29:31;15.25;;;13.93;;
69951;SDS011;60406;48.408;13.392;2022-09-06T08:34:33;13.13;;;11.80;;
69951;SDS011;60406;48.408;13.392;2022-09-06T08:39:33;12.57;;;11.43;;
69951;SDS011;60406;48.408;13.392;2022-09-06T08:44:36;14.27;;;11.98;;
69951;SDS011;60406;48.408;13.392;2022-09-06T09:00:07;12.13;;;11.02;;
69951;SDS011;60406;48.408;13.392;2022-09-06T09:05:26;17.33;;;11.80;;
69951;SDS011;60406;48.408;13.392;2022-09-06T09:10:30;11.50;;;10.30;;
69951;SDS011;60406;48.408;13.392;2022-09-06T09:15:38;11.13;;;10.10;;
69951;SDS011;60406;48.408;13.392;2022-09-06T09:20:39;12.55;;;10.32;;
69951;SDS011;60406;48.408;13.392;2022-09-06T09:25:40;11.65;;;10.15;;
69951;SDS011;60406;48.408;13.392;2022-09-06T09:30:51;12.60;;;8.98;;
69951;SDS011;60406;48.408;13.392;2022-09-06T09:35:53;9.77;;;8.75;;
69951;SDS011;60406;48.408;13.392;2022-09-06T09:40:56;11.38;;;8.70;;
69951;SDS011;60406;48.408;13.392;2022-09-06T09:46:07;10.55;;;9.48;;
69951;SDS011;60406;48.408;13.392;2022-09-06T09:51:20;9.68;;;8.70;;
69951;SDS011;60406;48.408;13.392;2022-09-06T10:01:32;11.40;;;7.70;;
69951;SDS011;60406;48.408;13.392;2022-09-06T10:06:33;8.35;;;7.60;;
69951;SDS011;60406;48.408;13.392;2022-09-06T10:11:47;9.05;;;7.40;;
69951;SDS011;60406;48.408;13.392;2022-09-06T10:16:56;8.80;;;7.50;;
69951;SDS011;60406;48.408;13.392;2022-09-06T10:21:58;7.45;;;6.22;;
69951;SDS011;60406;48.408;13.392;2022-09-06T10:27:05;9.68;;;7.18;;
69951;SDS011;60406;48.408;13.392;2022-09-06T10:42:45;9.93;;;5.75;;
69951;SDS011;60406;48.408;13.392;2022-09-06T10:52:56;5.95;;;5.32;;
69951;SDS011;60406;48.408;13.392;2022-09-06T10:58:01;5.53;;;5.03;;
69951;SDS011;60406;48.408;13.392;2022-09-06T11:03:11;6.85;;;5.40;;
69951;SDS011;60406;48.408;13.392;2022-09-06T11:08:22;6.18;;;5.50;;
69951;SDS011;60406;48.408;13.392;2022-09-06T11:13:27;5.60;;;5.10;;
69951;SDS011;60406;48.408;13.392;2022-09-06T11:18:39;6.10;;;5.50;;
69951;SDS011;60406;48.408;13.392;2022-09-06T11:23:45;7.55;;;5.63;;
69951;SDS011;60406;48.408;13.392;2022-09-06T11:28:57;6.93;;;6.03;;
69951;SDS011;60406;48.408;13.392;2022-09-06T11:34:11;11.18;;;5.65;;
69951;SDS011;60406;48.408;13.392;2022-09-06T11:39:24;10.30;;;5.63;;
69951;SDS011;60406;48.408;13.392;2022-09-06T11:49:49;6.20;;;5.05;;
69951;SDS011;60406;48.408;13.392;2022-09-06T11:54:50;6.95;;;4.35;;
69951;SDS011;60406;48.408;13.392;2022-09-06T11:59:53;6.07;;;4.40;;
69951;SDS011;60406;48.408;13.392;2022-09-06T12:10:00;3.88;;;3.58;;
69951;SDS011;60406;48.408;13.392;2022-09-06T12:25:51;5.30;;;3.53;;
69951;SDS011;60406;48.408;13.392;2022-09-06T12:30:53;4.35;;;3.50;;
69951;SDS011;60406;48.408;13.392;2022-09-06T12:36:10;8.60;;;3.65;;
69951;SDS011;60406;48.408;13.392;2022-09-06T12:41:22;5.13;;;3.58;;
69951;SDS011;60406;48.408;13.392;2022-09-06T12:46:24;4.03;;;3.55;;
69951;SDS011;60406;48.408;13.392;2022-09-06T12:51:25;6.88;;;3.60;;
69951;SDS011;60406;48.408;13.392;2022-09-06T12:56:27;5.88;;;3.45;;
69951;SDS011;60406;48.408;13.392;2022-09-06T13:01:29;4.30;;;3.90;;
69951;SDS011;60406;48.408;13.392;2022-09-06T13:06:34;5.00;;;3.63;;
69951;SDS011;60406;48.408;13.392;2022-09-06T13:11:41;7.50;;;3.63;;
69951;SDS011;60406;48.408;13.392;2022-09-06T13:16:47;4.78;;;3.00;;
69951;SDS011;60406;48.408;13.392;2022-09-06T13:21:49;5.22;;;3.47;;
69951;SDS011;60406;48.408;13.392;2022-09-06T13:26:50;8.38;;;3.65;;
69951;SDS011;60406;48.408;13.392;2022-09-06T13:31:52;3.72;;;3.25;;
69951;SDS011;60406;48.408;13.392;2022-09-06T13:36:59;4.07;;;3.10;;
69951;SDS011;60406;48.408;13.392;2022-09-06T13:42:09;6.60;;;3.33;;
69951;SDS011;60406;48.408;13.392;2022-09-06T13:47:10;6.30;;;3.13;;
69951;SDS011;60406;48.408;13.392;2022-09-06T13:52:11;4.35;;;2.90;;
69951;SDS011;60406;48.408;13.392;2022-09-06T13:57:13;3.47;;;2.70;;
69951;SDS011;60406;48.408;13.392;2022-09-06T14:02:14;4.90;;;2.70;;
69951;SDS011;60406;48.408;13.392;2022-09-06T14:07:15;4.43;;;3.08;;
69951;SDS011;60406;48.408;13.392;2022-09-06T14:12:16;5.68;;;3.80;;
69951;SDS011;60406;48.408;13.392;2022-09-06T14:17:17;8.25;;;3.63;;
69951;SDS011;60406;48.408;13.392;2022-09-06T14:22:18;4.93;;;3.42;;
69951;SDS011;60406;48.408;13.392;2022-09-06T14:27:18;9.70;;;3.25;;
69951;SDS011;60406;48.408;13.392;2022-09-06T14:32:20;7.22;;;3.28;;
69951;SDS011;60406;48.408;13.392;2022-09-06T14:37:20;5.32;;;3.65;;
69951;SDS011;60406;48.408;13.392;2022-09-06T14:42:21;6.00;;;3.80;;
69951;SDS011;60406;48.408;13.392;2022-09-06T14:47:22;3.75;;;2.88;;
69951;SDS011;60406;48.408;13.392;2022-09-06T14:52:23;6.70;;;2.50;;
69951;SDS011;60406;48.408;13.392;2022-09-06T14:57:24;5.13;;;2.40;;
69951;SDS011;60406;48.408;13.392;2022-09-06T15:02:25;5.38;;;2.53;;
69951;SDS011;60406;48.408;13.392;2022-09-06T15:07:26;3.60;;;2.42;;
69951;SDS011;60406;48.408;13.392;2022-09-06T15:12:27;4.57;;;2.13;;
69951;SDS011;60406;48.408;13.392;2022-09-06T15:17:28;4.85;;;2.20;;
69951;SDS011;60406;48.408;13.392;2022-09-06T15:22:28;4.43;;;2.30;;
69951;SDS011;60406;48.408;13.392;2022-09-06T15:27:30;3.45;;;2.10;;
69951;SDS011;60406;48.408;13.392;2022-09-06T15:32:30;3.65;;;2.10;;
69951;SDS011;60406;48.408;13.392;2022-09-06T15:37:31;5.88;;;1.90;;
69951;SDS011;60406;48.408;13.392;2022-09-06T15:42:32;3.85;;;2.42;;
69951;SDS011;60406;48.408;13.392;2022-09-06T15:47:33;5.15;;;2.30;;
69951;SDS011;60406;48.408;13.392;2022-09-06T15:52:34;5.45;;;2.60;;
69951;SDS011;60406;48.408;13.392;2022-09-06T15:57:35;3.00;;;2.20;;
69951;SDS011;60406;48.408;13.392;2022-09-06T16:02:36;4.88;;;1.90;;
69951;SDS011;60406;48.408;13.392;2022-09-06T16:07:37;3.90;;;2.42;;
69951;SDS011;60406;48.408;13.392;2022-09-06T16:12:38;5.18;;;2.05;;
69951;SDS011;60406;48.408;13.392;2022-09-06T16:17:39;4.07;;;2.28;;
69951;SDS011;60406;48.408;13.392;2022-09-06T16:22:39;6.80;;;2.20;;
69951;SDS011;60406;48.408;13.392;2022-09-06T16:27:40;6.65;;;2.33;;
69951;SDS011;60406;48.408;13.392;2022-09-06T16:32:41;6.53;;;2.87;;
69951;SDS011;60406;48.408;13.392;2022-09-06T16:37:42;4.70;;;2.43;;
69951;SDS011;60406;48.408;13.392;2022-09-06T16:42:43;3.75;;;3.10;;
69951;SDS011;60406;48.408;13.392;2022-09-06T16:47:44;7.85;;;3.33;;
69951;SDS011;60406;48.408;13.392;2022-09-06T16:52:44;5.10;;;3.28;;
69951;SDS011;60406;48.408;13.392;2022-09-06T16:57:45;7.97;;;3.13;;
69951;SDS011;60406;48.408;13.392;2022-09-06T17:02:46;7.35;;;3.20;;
69951;SDS011;60406;48.408;13.392;2022-09-06T17:07:47;9.02;;;3.88;;
69951;SDS011;60406;48.408;13.392;2022-09-06T17:12:48;11.50;;;4.20;;
69951;SDS011;60406;48.408;13.392;2022-09-06T17:17:49;8.18;;;3.05;;
69951;SDS011;60406;48.408;13.392;2022-09-06T17:22:50;7.25;;;3.45;;
69951;SDS011;60406;48.408;13.392;2022-09-06T17:27:50;5.53;;;3.20;;
69951;SDS011;60406;48.408;13.392;2022-09-06T17:32:51;5.18;;;3.30;;
69951;SDS011;60406;48.408;13.392;2022-09-06T17:37:52;9.18;;;3.67;;
69951;SDS011;60406;48.408;13.392;2022-09-06T17:42:53;10.85;;;3.72;;
69951;SDS011;60406;48.408;13.392;2022-09-06T17:47:54;5.75;;;3.60;;
69951;SDS011;60406;48.408;13.392;2022-09-06T17:57:30;9.02;;;3.90;;
69951;SDS011;60406;48.408;13.392;2022-09-06T18:02:31;10.02;;;4.10;;
69951;SDS011;60406;48.408;13.392;2022-09-06T18:07:32;12.10;;;4.00;;
69951;SDS011;60406;48.408;13.392;2022-09-06T18:12:33;6.53;;;3.88;;
69951;SDS011;60406;48.408;13.392;2022-09-06T18:17:34;6.57;;;4.25;;
69951;SDS011;60406;48.408;13.392;2022-09-06T18:22:34;10.65;;;5.60;;
69951;SDS011;60406;48.408;13.392;2022-09-06T18:27:35;8.07;;;4.85;;
69951;SDS011;60406;48.408;13.392;2022-09-06T18:32:36;5.63;;;5.03;;
69951;SDS011;60406;48.408;13.392;2022-09-06T18:37:37;10.48;;;5.60;;
69951;SDS011;60406;48.408;13.392;2022-09-06T18:42:42;8.30;;;5.97;;
69951;SDS011;60406;48.408;13.392;2022-09-06T18:47:43;13.10;;;9.20;;
69951;SDS011;60406;48.408;13.392;2022-09-06T18:52:44;15.65;;;9.23;;
69951;SDS011;60406;48.408;13.392;2022-09-06T18:57:45;13.40;;;7.30;;
69951;SDS011;60406;48.408;13.392;2022-09-06T19:02:46;8.70;;;6.57;;
69951;SDS011;60406;48.408;13.392;2022-09-06T19:07:46;8.40;;;6.57;;
69951;SDS011;60406;48.408;13.392;2022-09-06T19:12:47;10.82;;;7.32;;
69951;SDS011;60406;48.408;13.392;2022-09-06T19:17:48;8.80;;;7.90;;
69951;SDS011;60406;48.408;13.392;2022-09-06T19:22:49;14.98;;;10.55;;
69951;SDS011;60406;48.408;13.392;2022-09-06T19:27:50;13.50;;;10.57;;
69951;SDS011;60406;48.408;13.392;2022-09-06T19:32:51;17.33;;;10.02;;
69951;SDS011;60406;48.408;13.392;2022-09-06T19:37:52;12.45;;;9.52;;
69951;SDS011;60406;48.408;13.392;2022-09-06T19:42:53;9.60;;;8.73;;
69951;SDS011;60406;48.408;13.392;2022-09-06T19:47:54;16.00;;;8.75;;
69951;SDS011;60406;48.408;13.392;2022-09-06T19:52:55;13.60;;;9.38;;
69951;SDS011;60406;48.408;13.392;2022-09-06T19:57:56;11.43;;;10.18;;
69951;SDS011;60406;48.408;13.392;2022-09-06T20:02:57;11.98;;;9.57;;
69951;SDS011;60406;48.408;13.392;2022-09-06T20:07:57;15.60;;;10.63;;
69951;SDS011;60406;48.408;13.392;2022-09-06T20:12:58;18.10;;;12.55;;
69951;SDS011;60406;48.408;13.392;2022-09-06T20:17:59;12.85;;;11.30;;
69951;SDS011;60406;48.408;13.392;2022-09-06T20:23:00;13.65;;;12.13;;
69951;SDS011;60406;48.408;13.392;2022-09-06T20:28:01;13.60;;;12.15;;
69951;SDS011;60406;48.408;13.392;2022-09-06T20:33:02;15.07;;;11.95;;
69951;SDS011;60406;48.408;13.392;2022-09-06T20:38:03;15.35;;;12.63;;
69951;SDS011;60406;48.408;13.392;2022-09-06T20:43:04;15.70;;;13.80;;
69951;SDS011;60406;48.408;13.392;2022-09-06T20:48:05;17.67;;;14.18;;
69951;SDS011;60406;48.408;13.392;2022-09-06T20:53:06;16.23;;;14.63;;
69951;SDS011;60406;48.408;13.392;2022-09-06T20:58:07;17.02;;;15.50;;
69951;SDS011;60406;48.408;13.392;2022-09-06T21:03:08;17.00;;;15.52;;
69951;SDS011;60406;48.408;13.392;2022-09-06T21:08:08;16.90;;;14.30;;
69951;SDS011;60406;48.408;13.392;2022-09-06T21:13:09;21.65;;;14.82;;
69951;SDS011;60406;48.408;13.392;2022-09-06T21:18:11;15.73;;;14.13;;
69951;SDS011;60406;48.408;13.392;2022-09-06T21:23:11;16.85;;;15.02;;
69951;SDS011;60406;48.408;13.392;2022-09-06T21:28:12;17.27;;;15.15;;
69951;SDS011;60406;48.408;13.392;2022-09-06T21:33:13;18.02;;;16.23;;
69951;SDS011;60406;48.408;13.392;2022-09-06T21:38:14;16.45;;;14.93;;
69951;SDS011;60406;48.408;13.392;2022-09-06T21:43:15;15.90;;;14.30;;
69951;SDS011;60406;48.408;13.392;2022-09-06T21:48:16;18.75;;;14.93;;
69951;SDS011;60406;48.408;13.392;2022-09-06T21:53:17;17.30;;;14.85;;
69951;SDS011;60406;48.408;13.392;2022-09-06T21:58:18;18.45;;;14.90;;
69951;SDS011;60406;48.408;13.392;2022-09-06T22:03:19;15.85;;;14.25;;
69951;SDS011;60406;48.408;13.392;2022-09-06T22:08:20;23.55;;;15.18;;
69951;SDS011;60406;48.408;13.392;2022-09-06T22:13:22;16.45;;;14.80;;
69951;SDS011;60406;48.408;13.392;2022-09-06T22:18:22;17.25;;;15.63;;
69951;SDS011;60406;48.408;13.392;2022-09-06T22:23:23;20.13;;;16.30;;
69951;SDS011;60406;48.408;13.392;2022-09-06T22:28:24;25.02;;;18.00;;
69951;SDS011;60406;48.408;13.392;2022-09-06T22:33:25;19.30;;;17.30;;
69951;SDS011;60406;48.408;13.392;2022-09-06T22:38:27;21.05;;;16.50;;
69951;SDS011;60406;48.408;13.392;2022-09-06T22:43:28;20.55;;;16.40;;
69951;SDS011;60406;48.408;13.392;2022-09-06T22:48:29;19.63;;;17.67;;
69951;SDS011;60406;48.408;13.392;2022-09-06T22:53:29;19.30;;;17.42;;
69951;SDS011;60406;48.408;13.392;2022-09-06T22:58:31;24.73;;;19.88;;
69951;SDS011;60406;48.408;13.392;2022-09-06T23:03:32;21.13;;;19.02;;
69951;SDS011;60406;48.408;13.392;2022-09-06T23:08:33;22.45;;;20.08;;
69951;SDS011;60406;48.408;13.392;2022-09-06T23:13:36;22.88;;;20.48;;
69951;SDS011;60406;48.408;13.392;2022-09-06T23:18:37;22.23;;;19.67;;
69951;SDS011;60406;48.408;13.392;2022-09-06T23:23:38;23.30;;;21.05;;
69951;SDS011;60406;48.408;13.392;2022-09-06T23:28:39;21.60;;;19.35;;
69951;SDS011;60406;48.408;13.392;2022-09-06T23:33:40;24.80;;;22.35;;
69951;SDS011;60406;48.408;13.392;2022-09-06T23:38:41;23.92;;;21.77;;
69951;SDS011;60406;48.408;13.392;2022-09-06T23:43:42;24.65;;;22.05;;
69951;SDS011;60406;48.408;13.392;2022-09-06T23:48:43;23.23;;;20.88;;
69951;SDS011;60406;48.408;13.392;2022-09-06T23:53:44;23.95;;;21.48;;
69951;SDS011;60406;48.408;13.392;2022-09-06T23:58:45;24.48;;;21.88;;
